Time;durP1;ratioP1;P1;durP2;ratioP2;P2;SDS_P1;SDS_P2;PMS_P1;PMS_P2;Temp;Humidity;BMP_temperature;BMP_pressure;BME280_temperature;BME280_humidity;BME280_pressure;Samples;Min_cycle;Max_cycle;Signal;HPM_P1;HPM_P2
2022/12/14 00:09:49;;;;;;;20.53;10.13;;;;;;;8.62;46.64;99871.97;31076759;28;20508;-81
2022/12/14 00:24:51;;;;;;;22.27;10.30;;;;;;;8.81;47.04;99885.56;31235420;28;20061;-86
2022/12/14 00:40:01;;;;;;;26.20;11.43;;;;;;;8.91;47.98;99916.38;31151116;28;20116;-82
2022/12/14 00:55:05;;;;;;;25.23;11.07;;;;;;;8.89;45.84;99945.78;31194459;28;20132;-86
2022/12/14 01:10:07;;;;;;;27.80;12.10;;;;;;;8.87;47.00;99959.75;31192363;28;20050;-82
2022/12/14 01:25:13;;;;;;;20.10;10.20;;;;;;;8.70;45.38;99987.06;31153094;28;20044;-86
2022/12/14 01:40:16;;;;;;;24.47;11.97;;;;;;;8.84;47.38;100008.50;31128597;28;20054;-82
2022/12/14 01:55:26;;;;;;;28.03;13.10;;;;;;;8.73;48.12;100029.56;31084062;28;20541;-81
2022/12/14 02:10:31;;;;;;;28.17;13.97;;;;;;;8.48;48.06;100052.28;31133637;28;20183;-80
2022/12/14 02:25:39;;;;;;;35.57;14.13;;;;;;;8.39;48.59;100076.34;31138893;28;20076;-80
2022/12/14 02:40:56;;;;;;;30.97;13.03;;;;;;;8.52;48.65;100093.56;31110815;28;20058;-81
2022/12/14 02:56:05;;;;;;;28.93;12.60;;;;;;;8.54;48.24;100110.16;31135825;28;20069;-80
2022/12/14 03:11:09;;;;;;;26.53;12.60;;;;;;;8.47;47.40;100118.38;31148198;28;20050;-83
2022/12/14 03:26:23;;;;;;;26.27;12.17;;;;;;;8.55;47.89;100119.81;31323747;22;20092;-74
2022/12/14 03:41:58;;;;;;;22.67;11.00;;;;;;;8.41;47.45;100157.84;31301438;28;20084;-73
2022/12/14 03:57:09;;;;;;;18.77;10.33;;;;;;;8.49;47.30;100178.28;31271837;28;20080;-74
2022/12/14 04:29:54;;;;;;;18.43;8.70;;;;;;;8.71;46.09;100226.75;31311128;28;20407;-74
2022/12/14 04:43:37;;;;;;;18.53;9.13;;;;;;;8.72;46.09;100228.28;31335143;28;20057;-73
2022/12/14 04:58:40;;;;;;;16.63;9.07;;;;;;;8.42;48.54;100270.31;31345444;28;20484;-73
2022/12/14 05:13:46;;;;;;;19.57;8.77;;;;;;;8.36;47.47;100288.13;31335671;28;20081;-72
2022/12/14 05:28:49;;;;;;;16.00;8.73;;;;;;;7.96;47.11;100308.47;31342977;28;20072;-73
2022/12/14 05:43:51;;;;;;;17.90;9.97;;;;;;;8.25;49.23;100344.22;31334105;28;20502;-72
2022/12/14 05:58:53;;;;;;;20.63;9.10;;;;;;;8.75;45.83;100379.03;31326000;28;20061;-73
2022/12/14 06:13:55;;;;;;;23.33;7.73;;;;;;;11.16;40.90;100397.75;31333919;28;20609;-74
2022/12/14 06:28:57;;;;;;;14.77;7.23;;;;;;;13.01;39.55;100437.47;31332885;28;20064;-74
2022/12/14 06:44:09;;;;;;;14.53;6.00;;;;;;;14.59;32.49;100463.59;31345837;28;20128;-73
2022/12/14 06:59:18;;;;;;;9.60;5.20;;;;;;;15.05;33.54;100487.97;31356372;28;20502;-73
2022/12/14 07:14:20;;;;;;;9.97;5.37;;;;;;;15.66;30.61;100532.06;31343882;28;20062;-72
2022/12/14 07:29:22;;;;;;;8.93;4.70;;;;;;;15.66;30.25;100547.72;31358560;28;20544;-76
2022/12/14 07:44:24;;;;;;;11.17;5.80;;;;;;;16.73;33.20;100571.38;31348579;28;20045;-75
2022/12/14 07:59:28;;;;;;;8.43;4.57;;;;;;;16.16;29.49;100587.09;31335675;28;20057;-73
2022/12/14 08:14:31;;;;;;;9.03;5.20;;;;;;;17.30;30.07;100609.09;31317460;28;20465;-72
2022/12/14 08:29:33;;;;;;;6.43;4.30;;;;;;;17.52;28.21;100611.00;31331020;28;20107;-75
2022/12/14 08:44:43;;;;;;;11.57;5.07;;;;;;;17.86;25.77;100632.00;31385587;28;20037;-91
2022/12/14 08:59:48;;;;;;;9.53;4.63;;;;;;;17.71;26.75;100629.09;31331436;28;20107;-82
2022/12/14 09:15:02;;;;;;;6.70;3.87;;;;;;;17.97;26.29;100655.03;31359240;28;20718;-87
2022/12/14 09:30:06;;;;;;;10.07;4.27;;;;;;;18.65;25.45;100663.97;31336004;28;20870;-81
2022/12/14 09:45:32;;;;;;;7.67;4.53;;;;;;;18.32;25.63;100663.03;31361062;28;20490;-81
2022/12/14 10:00:43;;;;;;;6.70;3.83;;;;;;;18.22;25.07;100670.50;31350326;28;20049;-80
2022/12/14 10:16:49;;;;;;;8.17;3.63;;;;;;;18.45;24.52;100680.13;31359404;28;20131;-84
2022/12/14 10:32:29;;;;;;;6.67;4.13;;;;;;;18.34;24.70;100693.56;30804066;28;20055;-82
2022/12/14 10:47:44;;;;;;;8.50;4.40;;;;;;;18.29;25.60;100697.69;31222719;28;20084;-75
2022/12/14 11:02:55;;;;;;;9.17;4.57;;;;;;;18.10;25.68;100711.84;31216561;28;20053;-75
2022/12/14 11:18:05;;;;;;;10.83;5.53;;;;;;;17.43;26.60;100729.75;31211299;28;20091;-75
2022/12/14 11:33:16;;;;;;;11.80;5.57;;;;;;;17.24;26.96;100712.41;31322448;28;20059;-77
2022/12/14 11:48:22;;;;;;;9.40;4.93;;;;;;;17.25;28.11;100724.91;31390638;28;20049;-94
2022/12/14 12:03:50;;;;;;;7.13;4.50;;;;;;;17.07;26.08;100730.28;31343627;28;20060;-79
2022/12/14 12:19:00;;;;;;;8.93;5.00;;;;;;;17.25;27.91;100760.59;31352285;28;20063;-73
2022/12/14 12:34:23;;;;;;;8.57;4.80;;;;;;;16.42;28.13;100780.31;31355018;28;20061;-73
2022/12/14 12:49:25;;;;;;;25.63;10.97;;;;;;;13.53;31.92;100797.38;31370716;28;20120;-73
2022/12/14 13:04:33;;;;;;;9.20;4.80;;;;;;;12.24;33.12;100816.41;31374462;28;20056;-74
2022/12/14 13:19:48;;;;;;;11.30;5.40;;;;;;;11.46;35.37;100817.44;31386283;28;20057;-74
2022/12/14 13:35:22;;;;;;;12.10;6.73;;;;;;;11.13;36.48;100824.38;31342655;28;20052;-75
2022/12/14 13:50:31;;;;;;;22.97;10.87;;;;;;;10.79;36.95;100848.78;31351856;28;20060;-75
2022/12/14 14:05:44;;;;;;;13.67;6.07;;;;;;;10.67;37.41;100839.19;31371409;22;20053;-74
2022/12/14 14:21:11;;;;;;;14.00;6.63;;;;;;;10.28;39.18;100861.19;31339647;28;20049;-87
2022/12/14 14:36:32;;;;;;;12.60;7.20;;;;;;;10.03;39.17;100860.53;31382600;22;20052;-84
2022/12/14 14:51:35;;;;;;;19.23;9.73;;;;;;;10.03;39.71;100855.09;31350852;28;20056;-85
2022/12/14 15:06:40;;;;;;;20.63;9.13;;;;;;;9.98;39.89;100859.00;31423328;28;20045;-83
2022/12/14 15:21:42;;;;;;;17.40;8.17;;;;;;;9.87;40.00;100875.34;31387941;28;20053;-82
2022/12/14 15:36:46;;;;;;;40.83;16.00;;;;;;;10.18;39.82;100883.69;31397020;28;20131;-91
2022/12/14 15:51:50;;;;;;;16.50;8.83;;;;;;;9.96;40.86;100901.25;31384453;28;20045;-84
2022/12/14 16:07:01;;;;;;;19.77;8.90;;;;;;;10.35;41.88;100904.56;31383421;28;20049;-83
2022/12/14 16:22:19;;;;;;;23.20;9.93;;;;;;;9.96;41.78;100902.00;31375215;28;20049;-91
2022/12/14 16:37:25;;;;;;;22.13;8.73;;;;;;;9.74;42.78;100909.47;31330996;23;20057;-75
2022/12/14 16:52:35;;;;;;;18.80;9.27;;;;;;;9.38;42.24;100918.88;31172598;28;20052;-75
2022/12/14 17:07:37;;;;;;;15.00;7.43;;;;;;;9.12;44.30;100928.97;31229318;28;20408;-76
2022/12/14 17:22:40;;;;;;;27.70;13.33;;;;;;;8.98;45.32;100931.66;31174482;28;20068;-74
2022/12/14 17:37:42;;;;;;;33.70;15.57;;;;;;;8.92;41.79;100946.75;31200480;28;20089;-74
2022/12/14 17:52:45;;;;;;;108.47;45.73;;;;;;;9.19;44.28;100964.19;31227464;28;20140;-75
2022/12/14 18:07:47;;;;;;;40.43;17.97;;;;;;;8.61;43.91;100967.22;31214448;28;20111;-77
2022/12/14 18:22:51;;;;;;;30.20;13.73;;;;;;;9.02;44.83;100966.88;31206370;28;20148;-75
2022/12/14 18:37:54;;;;;;;22.43;11.97;;;;;;;8.63;41.69;100970.31;31194763;28;20056;-75
2022/12/14 18:52:56;;;;;;;39.87;16.67;;;;;;;8.31;44.35;100988.34;31199825;28;20088;-75
2022/12/14 19:07:59;;;;;;;41.17;20.27;;;;;;;8.08;44.09;100975.88;31183578;28;20057;-75
2022/12/14 19:23:01;;;;;;;55.57;26.70;;;;;;;7.83;45.42;100973.06;31172158;28;20108;-75
2022/12/14 19:38:04;;;;;;;70.47;31.00;;;;;;;7.11;46.64;100957.53;31202357;28;20123;-74
2022/12/14 19:53:06;;;;;;;71.20;27.07;;;;;;;7.26;47.65;100952.25;31198444;28;20084;-75
2022/12/14 20:08:07;;;;;;;56.90;25.67;;;;;;;7.33;46.64;100963.09;31214646;28;20050;-75
2022/12/14 20:23:09;;;;;;;53.30;25.77;;;;;;;7.34;46.36;100978.16;31190065;28;20061;-75
2022/12/14 20:38:11;;;;;;;53.17;25.43;;;;;;;7.06;46.32;100982.19;31225885;28;20506;-75
2022/12/14 20:53:13;;;;;;;56.87;28.50;;;;;;;6.92;46.00;100971.25;31221643;28;20081;-74
2022/12/14 21:08:15;;;;;;;63.47;27.87;;;;;;;6.52;46.12;100946.97;31211106;28;20830;-73
2022/12/14 21:23:17;;;;;;;54.03;24.87;;;;;;;6.26;47.46;100920.88;31238289;28;20143;-73
2022/12/14 21:38:19;;;;;;;36.57;18.07;;;;;;;6.28;46.58;100924.75;31216435;28;20115;-73
2022/12/14 21:53:21;;;;;;;28.57;12.33;;;;;;;6.07;43.73;100927.22;31201139;28;20156;-74
2022/12/14 22:08:24;;;;;;;16.97;8.73;;;;;;;6.23;43.84;100925.09;31189089;28;20127;-73
2022/12/14 22:23:25;;;;;;;16.43;8.10;;;;;;;5.79;43.34;100901.44;31211185;28;20492;-72
2022/12/14 22:38:31;;;;;;;12.57;6.27;;;;;;;5.99;45.06;100925.56;31208055;28;20061;-76
2022/12/14 22:53:33;;;;;;;17.30;8.00;;;;;;;5.78;45.12;100910.66;31175819;28;20077;-75
2022/12/14 23:08:35;;;;;;;17.60;8.83;;;;;;;5.23;46.98;100896.03;31225610;28;20488;-73
